Time;durP1;ratioP1;P1;durP2;ratioP2;P2;SDS_P1;SDS_P2;PMS_P1;PMS_P2;Temp;Humidity;BMP_temperature;BMP_pressure;BME280_temperature;BME280_humidity;BME280_pressure;Samples;Min_cycle;Max_cycle;Signal;HPM_P1;HPM_P2
2022/06/17 00:00:16;;;;;;;3.25;2.95;;;;;;;;;;5052857;28;20140;-91
2022/06/17 00:02:43;;;;;;;2.83;2.72;;;;;;;;;;5036199;28;20059;-93
2022/06/17 00:05:10;;;;;;;3.50;2.85;;;;;;;;;;5035760;28;20053;-92
2022/06/17 00:07:40;;;;;;;5.00;3.00;;;;;;;;;;5035739;28;20053;-92
2022/06/17 00:10:18;;;;;;;5.40;2.90;;;;;;;;;;5042167;28;20059;-92
2022/06/17 00:12:46;;;;;;;3.03;2.83;;;;;;;;;;5042283;28;20057;-93
2022/06/17 00:15:14;;;;;;;3.72;3.38;;;;;;;;;;5042146;28;20072;-92
2022/06/17 00:17:44;;;;;;;3.40;3.20;;;;;;;;;;5042272;28;20482;-92
2022/06/17 00:20:14;;;;;;;3.40;3.10;;;;;;;;;;5041905;28;20560;-92
2022/06/17 00:22:42;;;;;;;3.70;3.40;;;;;;;;;;5041607;28;20059;-92
2022/06/17 00:25:18;;;;;;;3.75;3.40;;;;;;;;;;5041603;28;20128;-90
2022/06/17 00:27:46;;;;;;;5.68;3.25;;;;;;;;;;5042186;28;20092;-92
2022/06/17 00:30:18;;;;;;;5.78;3.35;;;;;;;;;;5059658;28;20046;-92
2022/06/17 00:32:45;;;;;;;3.70;3.22;;;;;;;;;;5042429;28;20106;-91
2022/06/17 00:35:13;;;;;;;4.13;3.03;;;;;;;;;;5052266;28;20105;-91
2022/06/17 00:37:41;;;;;;;4.53;2.90;;;;;;;;;;5032617;28;20145;-93
2022/06/17 00:40:17;;;;;;;3.67;3.38;;;;;;;;;;5059716;28;20106;-92
2022/06/17 00:42:45;;;;;;;3.65;3.00;;;;;;;;;;5041911;28;20053;-92
2022/06/17 00:45:16;;;;;;;3.33;3.03;;;;;;;;;;5041547;28;20051;-91
2022/06/17 00:47:52;;;;;;;6.55;2.90;;;;;;;;;;5042046;28;20425;-92
2022/06/17 00:50:24;;;;;;;3.30;2.90;;;;;;;;;;5041927;28;20077;-92
2022/06/17 00:53:05;;;;;;;3.90;2.43;;;;;;;;;;5042079;28;20049;-92
2022/06/17 00:55:42;;;;;;;3.20;2.80;;;;;;;;;;5041825;28;20135;-92
2022/06/17 00:58:15;;;;;;;3.92;2.83;;;;;;;;;;5041850;28;20079;-92
2022/06/17 01:00:43;;;;;;;3.05;2.85;;;;;;;;;;5038160;28;20080;-92
2022/06/17 01:03:15;;;;;;;5.47;2.88;;;;;;;;;;5038308;28;20088;-92
2022/06/17 01:05:49;;;;;;;2.65;2.45;;;;;;;;;;5038257;28;20056;-92
2022/06/17 01:11:13;;;;;;;3.20;2.90;;;;;;;;;;5039395;28;20053;-92
2022/06/17 01:13:40;;;;;;;2.80;2.60;;;;;;;;;;5038374;28;20073;-92
2022/06/17 01:16:08;;;;;;;4.22;2.90;;;;;;;;;;5038047;28;20079;-92
2022/06/17 01:18:37;;;;;;;3.50;2.88;;;;;;;;;;5038320;28;20552;-93
2022/06/17 01:21:09;;;;;;;3.38;2.67;;;;;;;;;;5034609;28;20049;-92
2022/06/17 01:23:37;;;;;;;4.77;2.97;;;;;;;;;;5035084;28;20489;-92
2022/06/17 01:26:04;;;;;;;3.25;2.95;;;;;;;;;;5035003;28;20132;-92
2022/06/17 01:28:31;;;;;;;3.85;3.03;;;;;;;;;;5036400;28;20245;-93
2022/06/17 01:30:59;;;;;;;3.10;2.83;;;;;;;;;;5035107;28;20128;-93
2022/06/17 01:33:31;;;;;;;2.97;2.78;;;;;;;;;;5036105;28;20058;-93
2022/06/17 01:36:04;;;;;;;4.22;3.20;;;;;;;;;;5034840;28;20059;-92
2022/06/17 01:38:32;;;;;;;3.80;3.28;;;;;;;;;;5035053;28;20049;-92
2022/06/17 01:41:01;;;;;;;4.80;2.90;;;;;;;;;;5034810;28;20077;-92
2022/06/17 01:43:31;;;;;;;4.55;3.20;;;;;;;;;;5034895;28;20084;-92
2022/06/17 01:46:06;;;;;;;3.58;3.28;;;;;;;;;;5034997;28;20132;-91
2022/06/17 01:48:36;;;;;;;2.78;2.65;;;;;;;;;;5034355;28;20055;-92
2022/06/17 01:51:04;;;;;;;4.13;2.72;;;;;;;;;;5036280;28;20123;-92
2022/06/17 01:53:33;;;;;;;3.10;3.00;;;;;;;;;;5043475;28;20050;-92
2022/06/17 01:56:07;;;;;;;5.38;3.28;;;;;;;;;;5035774;28;20081;-93
2022/06/17 01:58:40;;;;;;;3.25;2.88;;;;;;;;;;5034329;28;20266;-92
2022/06/17 02:01:09;;;;;;;3.58;3.20;;;;;;;;;;5034349;28;20443;-93
2022/06/17 02:03:40;;;;;;;3.40;3.10;;;;;;;;;;5035315;28;20045;-92
2022/06/17 02:06:10;;;;;;;3.20;3.00;;;;;;;;;;5034576;28;20060;-93
2022/06/17 02:08:37;;;;;;;3.92;3.25;;;;;;;;;;5034332;28;20061;-92
2022/06/17 02:11:05;;;;;;;5.70;3.13;;;;;;;;;;5034159;28;20045;-93
2022/06/17 02:13:39;;;;;;;3.40;3.03;;;;;;;;;;5034544;28;20049;-93
2022/06/17 02:16:07;;;;;;;4.10;3.03;;;;;;;;;;5034412;28;20497;-92
2022/06/17 02:18:34;;;;;;;3.80;3.50;;;;;;;;;;5035329;28;20045;-92
2022/06/17 02:21:04;;;;;;;3.35;3.08;;;;;;;;;;5034222;28;20493;-89
2022/06/17 02:23:32;;;;;;;3.85;3.20;;;;;;;;;;5034626;28;20593;-93
2022/06/17 02:26:00;;;;;;;3.35;3.00;;;;;;;;;;5033864;28;20057;-93
2022/06/17 02:28:29;;;;;;;4.03;3.60;;;;;;;;;;5033936;28;20050;-93
2022/06/17 02:30:57;;;;;;;5.00;3.75;;;;;;;;;;5033810;28;20129;-92
2022/06/17 02:33:27;;;;;;;3.60;3.38;;;;;;;;;;5033779;28;20049;-93
2022/06/17 02:35:56;;;;;;;4.15;3.67;;;;;;;;;;5033873;28;20053;-93
2022/06/17 02:38:26;;;;;;;3.75;3.10;;;;;;;;;;5034401;28;20072;-92
2022/06/17 02:40:55;;;;;;;4.53;3.28;;;;;;;;;;5033827;28;20180;-92
2022/06/17 02:43:24;;;;;;;4.03;3.05;;;;;;;;;;5033514;28;20049;-92
2022/06/17 02:45:53;;;;;;;4.55;3.33;;;;;;;;;;5033451;28;20136;-92
2022/06/17 02:48:25;;;;;;;4.05;3.33;;;;;;;;;;5033979;28;20544;-92
2022/06/17 02:50:53;;;;;;;4.53;3.42;;;;;;;;;;5033347;28;20059;-93
2022/06/17 02:53:24;;;;;;;7.00;3.60;;;;;;;;;;5034733;28;20059;-92
2022/06/17 02:55:51;;;;;;;3.90;3.60;;;;;;;;;;5034537;28;20107;-93
2022/06/17 02:58:28;;;;;;;4.63;4.18;;;;;;;;;;5033713;28;20087;-91
2022/06/17 03:00:56;;;;;;;4.40;3.92;;;;;;;;;;5044295;28;20117;-91
2022/06/17 03:03:24;;;;;;;4.25;3.85;;;;;;;;;;5036383;28;20053;-92
2022/06/17 03:05:52;;;;;;;3.83;3.53;;;;;;;;;;5036498;28;20048;-92
2022/06/17 03:08:27;;;;;;;6.30;3.90;;;;;;;;;;5038220;28;20083;-92
2022/06/17 03:10:55;;;;;;;5.65;3.05;;;;;;;;;;5047877;28;20100;-92
2022/06/17 03:13:31;;;;;;;3.92;3.63;;;;;;;;;;5038729;28;20049;-92
2022/06/17 03:16:00;;;;;;;4.40;3.22;;;;;;;;;;5036258;28;20052;-92
2022/06/17 03:18:28;;;;;;;4.43;3.25;;;;;;;;;;5036586;28;20143;-92
2022/06/17 03:20:55;;;;;;;3.67;3.35;;;;;;;;;;5036840;28;20136;-92
2022/06/17 03:23:26;;;;;;;3.97;3.67;;;;;;;;;;5036586;28;20055;-92
2022/06/17 03:26:00;;;;;;;3.90;3.58;;;;;;;;;;5036519;28;20122;-92
2022/06/17 03:28:41;;;;;;;3.53;3.25;;;;;;;;;;5036088;28;20084;-91
2022/06/17 03:31:12;;;;;;;3.28;3.08;;;;;;;;;;5036292;28;20053;-92
2022/06/17 03:33:44;;;;;;;3.50;3.20;;;;;;;;;;5036126;28;20045;-93
2022/06/17 03:36:15;;;;;;;3.55;3.33;;;;;;;;;;5036486;28;20133;-93
2022/06/17 03:38:46;;;;;;;4.18;3.80;;;;;;;;;;5036457;28;20102;-93
2022/06/17 03:41:25;;;;;;;3.95;3.60;;;;;;;;;;5053744;28;20135;-93
2022/06/17 03:43:54;;;;;;;4.00;3.53;;;;;;;;;;5035817;28;20073;-93
2022/06/17 03:46:24;;;;;;;3.70;3.40;;;;;;;;;;5054020;28;20103;-92
2022/06/17 03:49:00;;;;;;;3.53;3.33;;;;;;;;;;5037111;28;20057;-92
2022/06/17 03:51:27;;;;;;;4.15;3.85;;;;;;;;;;5054532;28;20166;-92
2022/06/17 03:53:55;;;;;;;4.40;4.00;;;;;;;;;;5036214;28;20051;-92
2022/06/17 03:56:30;;;;;;;5.05;4.63;;;;;;;;;;5036073;28;20496;-93
2022/06/17 03:59:00;;;;;;;9.10;6.38;;;;;;;;;;5053497;28;20557;-92
2022/06/17 04:01:37;;;;;;;8.25;6.65;;;;;;;;;;5052831;28;20524;-92
2022/06/17 04:04:15;;;;;;;7.70;5.38;;;;;;;;;;5035814;28;20132;-92
2022/06/17 04:06:43;;;;;;;4.97;4.57;;;;;;;;;;5035876;28;20045;-92
2022/06/17 04:09:24;;;;;;;7.03;4.32;;;;;;;;;;5035798;28;20136;-93
2022/06/17 04:11:54;;;;;;;5.88;4.15;;;;;;;;;;5053365;28;20109;-92
2022/06/17 04:14:24;;;;;;;5.15;4.18;;;;;;;;;;5035903;28;20565;-92
2022/06/17 04:17:01;;;;;;;6.82;3.90;;;;;;;;;;5036170;28;20465;-93
2022/06/17 04:19:29;;;;;;;5.60;4.18;;;;;;;;;;5053515;28;20056;-92
2022/06/17 04:22:06;;;;;;;4.65;3.92;;;;;;;;;;5035855;28;20051;-93
2022/06/17 04:24:33;;;;;;;3.70;3.50;;;;;;;;;;5035837;28;20061;-92
2022/06/17 04:27:02;;;;;;;3.45;3.17;;;;;;;;;;5044393;28;20060;-92
2022/06/17 04:29:38;;;;;;;3.90;3.60;;;;;;;;;;5042733;28;20053;-93
2022/06/17 04:32:18;;;;;;;4.00;3.15;;;;;;;;;;5035896;28;20049;-92
2022/06/17 04:34:46;;;;;;;3.40;3.10;;;;;;;;;;5036093;28;20388;-91
2022/06/17 04:37:20;;;;;;;6.93;3.38;;;;;;;;;;5052609;28;20136;-92
2022/06/17 04:39:53;;;;;;;4.95;2.90;;;;;;;;;;5053270;28;20204;-91
2022/06/17 04:42:33;;;;;;;3.05;2.85;;;;;;;;;;5036869;28;20405;-92
2022/06/17 04:45:00;;;;;;;3.35;3.05;;;;;;;;;;5053129;28;20128;-93
2022/06/17 04:47:28;;;;;;;3.38;2.80;;;;;;;;;;5035281;28;20404;-92
2022/06/17 04:50:00;;;;;;;3.88;3.05;;;;;;;;;;5035548;28;20128;-91
2022/06/17 04:52:30;;;;;;;3.28;2.90;;;;;;;;;;5035588;28;20127;-92
2022/06/17 04:54:58;;;;;;;3.20;2.88;;;;;;;;;;5037162;28;20056;-92
2022/06/17 04:57:26;;;;;;;2.15;2.05;;;;;;;;;;5056935;28;20056;-92
2022/06/17 04:59:58;;;;;;;2.78;2.17;;;;;;;;;;5056356;28;20080;-92
2022/06/17 05:02:30;;;;;;;3.20;2.50;;;;;;;;;;5039173;28;20053;-93
2022/06/17 05:04:59;;;;;;;2.80;2.60;;;;;;;;;;5038963;28;20080;-91
2022/06/17 05:07:28;;;;;;;3.17;2.13;;;;;;;;;;5056882;28;20048;-92
2022/06/17 05:10:30;;;;;;;4.80;2.10;;;;;;;;;;5042135;28;20394;-92
2022/06/17 05:12:58;;;;;;;2.17;1.83;;;;;;;;;;5039484;28;20559;-91
2022/06/17 05:15:25;;;;;;;1.77;1.65;;;;;;;;;;5056631;28;20453;-91
2022/06/17 05:17:54;;;;;;;1.67;1.50;;;;;;;;;;5039118;28;20452;-91
2022/06/17 05:20:22;;;;;;;2.25;1.55;;;;;;;;;;5038832;28;20045;-91
2022/06/17 05:22:51;;;;;;;2.22;1.50;;;;;;;;;;5056029;28;20055;-92
2022/06/17 05:25:20;;;;;;;3.72;1.45;;;;;;;;;;5057277;28;20548;-93
2022/06/17 05:27:48;;;;;;;2.85;1.30;;;;;;;;;;5041968;28;20056;-90
2022/06/17 05:30:15;;;;;;;1.83;1.30;;;;;;;;;;5039841;28;20049;-90
2022/06/17 05:32:45;;;;;;;3.75;1.45;;;;;;;;;;5038724;28;20072;-90
2022/06/17 05:35:12;;;;;;;2.53;2.08;;;;;;;;;;5038544;28;20131;-91
2022/06/17 05:37:40;;;;;;;6.55;1.45;;;;;;;;;;5038053;28;20140;-88
2022/06/17 05:40:08;;;;;;;6.78;1.85;;;;;;;;;;5056286;28;20489;-90
2022/06/17 05:42:36;;;;;;;4.57;1.95;;;;;;;;;;5039701;28;20045;-90
2022/06/17 05:45:04;;;;;;;5.13;1.67;;;;;;;;;;5050497;28;20468;-90
2022/06/17 05:47:31;;;;;;;3.88;1.52;;;;;;;;;;5060353;28;20127;-90
2022/06/17 05:49:58;;;;;;;8.25;1.90;;;;;;;;;;5038102;28;20061;-90
2022/06/17 05:52:29;;;;;;;9.35;2.00;;;;;;;;;;5039174;28;20140;-90
2022/06/17 05:55:04;;;;;;;5.95;1.75;;;;;;;;;;5038084;28;20045;-88
2022/06/17 05:57:31;;;;;;;4.13;1.88;;;;;;;;;;5037946;28;20505;-90
2022/06/17 05:59:58;;;;;;;5.85;1.95;;;;;;;;;;5037958;28;20099;-90
2022/06/17 06:02:32;;;;;;;7.20;2.33;;;;;;;;;;5038681;28;20494;-93
2022/06/17 06:05:00;;;;;;;4.85;1.77;;;;;;;;;;5037975;28;20132;-91
2022/06/17 06:07:27;;;;;;;8.63;2.15;;;;;;;;;;5037141;28;20049;-89
2022/06/17 06:09:54;;;;;;;8.18;1.98;;;;;;;;;;5037826;28;20532;-90
2022/06/17 06:12:21;;;;;;;4.78;1.50;;;;;;;;;;5055652;28;20045;-91
2022/06/17 06:14:49;;;;;;;10.25;2.13;;;;;;;;;;5037971;28;20084;-90
2022/06/17 06:17:16;;;;;;;9.07;2.05;;;;;;;;;;5037859;28;20136;-90
2022/06/17 06:19:43;;;;;;;8.65;1.77;;;;;;;;;;5038050;28;20049;-88
2022/06/17 06:22:10;;;;;;;5.25;2.20;;;;;;;;;;5055370;28;20052;-92
2022/06/17 06:24:40;;;;;;;7.18;2.05;;;;;;;;;;5037909;28;20099;-89
2022/06/17 06:27:08;;;;;;;4.65;1.98;;;;;;;;;;5041766;28;20068;-90
2022/06/17 06:29:36;;;;;;;7.75;2.25;;;;;;;;;;5038116;28;20053;-89
2022/06/17 06:32:03;;;;;;;5.90;1.80;;;;;;;;;;5038095;28;20045;-87
2022/06/17 06:34:31;;;;;;;5.10;1.55;;;;;;;;;;5038530;28;20069;-89
2022/06/17 06:36:58;;;;;;;4.05;1.60;;;;;;;;;;5038385;28;20057;-91
2022/06/17 06:39:27;;;;;;;5.32;1.40;;;;;;;;;;5038745;28;20068;-93
2022/06/17 06:41:54;;;;;;;5.25;1.70;;;;;;;;;;5037630;28;20131;-90
2022/06/17 06:44:21;;;;;;;5.68;1.27;;;;;;;;;;5037262;28;20123;-88
2022/06/17 06:46:48;;;;;;;1.80;1.27;;;;;;;;;;5038005;28;20485;-90
2022/06/17 06:49:16;;;;;;;3.10;1.30;;;;;;;;;;5037370;28;20049;-90
2022/06/17 06:51:43;;;;;;;2.95;1.02;;;;;;;;;;5037604;28;20064;-89
2022/06/17 06:54:10;;;;;;;2.58;1.20;;;;;;;;;;5037484;28;20140;-90
2022/06/17 06:56:38;;;;;;;3.75;1.08;;;;;;;;;;5037452;28;20045;-93
2022/06/17 06:59:06;;;;;;;1.88;0.82;;;;;;;;;;5038909;28;20049;-92
2022/06/17 07:01:33;;;;;;;4.50;1.00;;;;;;;;;;5044317;28;20113;-89
2022/06/17 07:04:04;;;;;;;0.82;0.82;;;;;;;;;;5050953;28;20479;-90
2022/06/17 07:06:33;;;;;;;1.48;0.93;;;;;;;;;;5037169;28;20479;-92
2022/06/17 07:09:00;;;;;;;2.58;0.77;;;;;;;;;;5037876;28;20133;-90
2022/06/17 07:11:27;;;;;;;5.20;0.82;;;;;;;;;;5037003;28;20056;-88
2022/06/17 07:13:55;;;;;;;2.90;0.98;;;;;;;;;;5036623;28;20099;-88
2022/06/17 07:16:22;;;;;;;3.20;0.77;;;;;;;;;;5036378;28;20136;-89
2022/06/17 07:18:49;;;;;;;3.90;0.70;;;;;;;;;;5035457;28;20131;-90
2022/06/17 07:21:17;;;;;;;3.70;0.90;;;;;;;;;;5037067;28;20128;-91
2022/06/17 07:23:45;;;;;;;1.92;0.73;;;;;;;;;;5054459;28;20131;-93
2022/06/17 07:26:17;;;;;;;1.48;0.80;;;;;;;;;;5056052;28;20088;-90
2022/06/17 07:28:46;;;;;;;2.70;0.65;;;;;;;;;;5036694;28;20490;-89
2022/06/17 07:31:13;;;;;;;2.38;0.95;;;;;;;;;;5036981;28;20068;-92
2022/06/17 07:33:40;;;;;;;3.88;0.60;;;;;;;;;;5054180;28;20077;-92
2022/06/17 07:36:10;;;;;;;2.38;0.93;;;;;;;;;;5036468;28;20136;-89
2022/06/17 07:41:25;;;;;;;2.35;0.65;;;;;;;;;;5053860;28;20049;-90
2022/06/17 07:43:53;;;;;;;1.23;0.73;;;;;;;;;;5037405;28;20084;-92
2022/06/17 07:46:22;;;;;;;2.17;0.65;;;;;;;;;;5036673;28;20052;-93
2022/06/17 07:48:49;;;;;;;1.50;0.80;;;;;;;;;;5037300;28;20048;-89
2022/06/17 07:51:17;;;;;;;1.92;0.68;;;;;;;;;;5036175;28;20095;-89
2022/06/17 07:53:44;;;;;;;3.88;0.80;;;;;;;;;;5036440;28;20081;-87
2022/06/17 07:56:15;;;;;;;0.85;0.85;;;;;;;;;;5054431;28;20145;-87
2022/06/17 07:58:44;;;;;;;3.83;0.70;;;;;;;;;;5036476;28;20052;-88
2022/06/17 08:01:12;;;;;;;1.27;0.60;;;;;;;;;;5036233;28;20141;-89
2022/06/17 08:03:39;;;;;;;1.40;0.90;;;;;;;;;;5036774;28;20077;-88
2022/06/17 08:06:07;;;;;;;3.13;0.70;;;;;;;;;;5036297;28;20053;-88
2022/06/17 08:08:35;;;;;;;2.35;0.50;;;;;;;;;;5036083;28;20052;-87
2022/06/17 08:11:02;;;;;;;1.77;0.70;;;;;;;;;;5036341;28;20087;-93
2022/06/17 08:13:29;;;;;;;4.32;1.30;;;;;;;;;;5036759;28;20144;-89
2022/06/17 08:15:58;;;;;;;1.83;0.63;;;;;;;;;;5036975;28;20083;-90
2022/06/17 08:18:26;;;;;;;1.63;0.77;;;;;;;;;;5066659;28;20046;-94
2022/06/17 08:20:53;;;;;;;0.73;0.70;;;;;;;;;;5046884;28;20124;-92
2022/06/17 08:23:21;;;;;;;1.75;0.77;;;;;;;;;;5036219;28;20099;-90
2022/06/17 08:25:48;;;;;;;3.15;0.63;;;;;;;;;;5035930;28;20048;-93
2022/06/17 08:28:16;;;;;;;2.15;0.63;;;;;;;;;;5038105;28;20071;-91
2022/06/17 08:30:45;;;;;;;1.70;0.77;;;;;;;;;;5039005;28;20053;-88
2022/06/17 08:33:12;;;;;;;2.53;0.80;;;;;;;;;;5039361;28;20139;-92
2022/06/17 08:36:04;;;;;;;2.45;0.77;;;;;;;;;;5057584;28;20479;-91
2022/06/17 08:38:33;;;;;;;1.35;0.60;;;;;;;;;;5039595;28;20069;-89
2022/06/17 08:41:05;;;;;;;0.88;0.60;;;;;;;;;;5039726;28;20137;-89
2022/06/17 08:43:51;;;;;;;2.03;0.85;;;;;;;;;;5041151;28;20064;-90
2022/06/17 08:46:18;;;;;;;2.63;0.50;;;;;;;;;;5040652;28;20136;-90
2022/06/17 08:48:49;;;;;;;1.58;0.60;;;;;;;;;;5039499;28;20052;-87
2022/06/17 08:51:25;;;;;;;1.88;0.60;;;;;;;;;;5039757;28;20141;-90
2022/06/17 08:54:10;;;;;;;1.50;0.47;;;;;;;;;;5040227;28;20148;-94
2022/06/17 08:56:38;;;;;;;1.80;0.82;;;;;;;;;;5042327;28;20077;-95
2022/06/17 08:59:05;;;;;;;1.65;0.55;;;;;;;;;;5040156;28;20083;-90
2022/06/17 09:01:42;;;;;;;5.90;1.13;;;;;;;;;;5039810;28;20052;-93
2022/06/17 09:04:20;;;;;;;1.88;0.73;;;;;;;;;;5039624;28;20065;-95
2022/06/17 09:06:48;;;;;;;2.05;0.70;;;;;;;;;;5040921;28;20056;-92
2022/06/17 09:09:34;;;;;;;1.85;0.50;;;;;;;;;;5042552;28;20077;-93
2022/06/17 09:12:22;;;;;;;2.05;0.50;;;;;;;;;;5041028;28;20055;-95
2022/06/17 09:15:13;;;;;;;1.85;0.60;;;;;;;;;;5040036;28;20083;-91
2022/06/17 09:18:07;;;;;;;2.97;0.60;;;;;;;;;;5040305;28;20144;-96
2022/06/17 09:20:36;;;;;;;1.67;0.80;;;;;;;;;;5004345;28;20127;-89
2022/06/17 09:23:13;;;;;;;0.80;0.50;;;;;;;;;;5040302;28;20125;-91
2022/06/17 09:25:45;;;;;;;0.50;0.40;;;;;;;;;;5039242;28;20131;-91
2022/06/17 09:28:33;;;;;;;2.97;0.52;;;;;;;;;;5039743;28;20128;-92
2022/06/17 09:31:09;;;;;;;3.20;0.50;;;;;;;;;;5041768;28;20053;-94
2022/06/17 09:33:40;;;;;;;4.85;1.02;;;;;;;;;;5038967;28;20057;-90
2022/06/17 09:36:08;;;;;;;1.05;0.50;;;;;;;;;;5046137;28;20060;-88
2022/06/17 09:38:41;;;;;;;1.83;0.40;;;;;;;;;;5042843;28;20045;-89
2022/06/17 09:41:14;;;;;;;3.42;0.30;;;;;;;;;;5038420;28;20516;-91
2022/06/17 09:43:51;;;;;;;2.47;0.40;;;;;;;;;;5055809;28;20107;-90
2022/06/17 09:46:26;;;;;;;1.08;0.40;;;;;;;;;;5038348;28;20049;-92
2022/06/17 09:48:59;;;;;;;1.00;0.55;;;;;;;;;;5038611;28;20052;-89
2022/06/17 09:51:26;;;;;;;;;;;;;;;;;;5039131;28;20045;-95
2022/06/17 09:54:07;;;;;;;1.73;0.40;;;;;;;;;;5040951;28;19935;-92
2022/06/17 09:57:06;;;;;;;2.75;0.55;;;;;;;;;;5038516;28;20540;-89
2022/06/17 09:59:40;;;;;;;0.43;0.35;;;;;;;;;;4986246;28;20137;-94
2022/06/17 10:02:26;;;;;;;1.17;0.40;;;;;;;;;;5039715;28;20053;-91
2022/06/17 10:04:54;;;;;;;0.73;0.50;;;;;;;;;;5037948;28;20126;-91
2022/06/17 10:07:28;;;;;;;1.58;0.40;;;;;;;;;;5038083;28;20072;-90
2022/06/17 10:10:04;;;;;;;0.85;0.47;;;;;;;;;;5038582;28;20076;-92
2022/06/17 10:12:31;;;;;;;0.40;0.38;;;;;;;;;;5040184;28;20053;-92
2022/06/17 10:15:14;;;;;;;0.43;0.38;;;;;;;;;;5040220;28;20475;-91
2022/06/17 10:20:37;;;;;;;2.03;0.30;;;;;;;;;;5058610;28;20057;-91
2022/06/17 10:23:27;;;;;;;2.65;0.55;;;;;;;;;;5042296;28;20076;-93
2022/06/17 10:26:07;;;;;;;0.40;0.30;;;;;;;;;;5038380;28;20160;-88
2022/06/17 10:28:56;;;;;;;0.50;0.40;;;;;;;;;;5037874;28;20132;-90
2022/06/17 10:31:40;;;;;;;10.85;1.02;;;;;;;;;;5039998;28;20432;-95
2022/06/17 10:34:27;;;;;;;1.15;0.32;;;;;;;;;;5038446;28;20110;-94
2022/06/17 10:36:58;;;;;;;1.70;0.50;;;;;;;;;;5040632;28;20049;-94
2022/06/17 10:39:27;;;;;;;3.50;0.70;;;;;;;;;;5038401;28;20049;-91
2022/06/17 10:41:55;;;;;;;9.73;1.17;;;;;;;;;;5039807;28;20076;-95
2022/06/17 10:44:24;;;;;;;2.17;0.40;;;;;;;;;;5038294;28;20707;-94
2022/06/17 10:46:57;;;;;;;1.88;0.45;;;;;;;;;;5038690;28;20083;-92
2022/06/17 10:49:25;;;;;;;0.40;0.38;;;;;;;;;;5037992;28;20055;-93
2022/06/17 10:51:54;;;;;;;0.65;0.40;;;;;;;;;;5037619;28;20144;-89
2022/06/17 10:54:24;;;;;;;0.30;0.30;;;;;;;;;;5041807;28;20052;-90
2022/06/17 10:57:07;;;;;;;4.40;0.40;;;;;;;;;;5040508;28;20132;-93
2022/06/17 10:59:41;;;;;;;1.13;0.22;;;;;;;;;;5039473;28;20539;-96
2022/06/17 11:02:36;;;;;;;0.20;0.20;;;;;;;;;;5037533;28;20053;-91
2022/06/17 11:05:08;;;;;;;0.47;0.20;;;;;;;;;;5035538;28;20049;-92
2022/06/17 11:07:37;;;;;;;1.75;0.20;;;;;;;;;;5038476;28;20049;-93
2022/06/17 11:10:14;;;;;;;0.50;0.20;;;;;;;;;;5038013;28;20068;-88
2022/06/17 11:12:42;;;;;;;0.57;0.40;;;;;;;;;;5036983;28;20045;-89
2022/06/17 11:15:21;;;;;;;2.45;0.40;;;;;;;;;;5037014;28;20493;-90
2022/06/17 11:17:50;;;;;;;0.25;0.20;;;;;;;;;;5037062;28;20485;-88
2022/06/17 11:20:23;;;;;;;0.70;0.40;;;;;;;;;;5037198;28;20068;-91
2022/06/17 11:23:18;;;;;;;0.43;0.35;;;;;;;;;;5040530;28;20045;-95
2022/06/17 11:25:46;;;;;;;5.85;0.68;;;;;;;;;;5036582;28;20049;-91
2022/06/17 11:28:35;;;;;;;0.75;0.50;;;;;;;;;;5036835;28;20049;-89
2022/06/17 11:31:07;;;;;;;0.45;0.30;;;;;;;;;;5036632;28;20569;-89
2022/06/17 11:33:42;;;;;;;0.50;0.20;;;;;;;;;;5020171;28;20620;-90
2022/06/17 11:36:18;;;;;;;0.65;0.30;;;;;;;;;;5035950;28;20520;-88
2022/06/17 11:38:46;;;;;;;1.55;0.30;;;;;;;;;;5037609;28;20060;-95
2022/06/17 11:41:25;;;;;;;0.50;0.20;;;;;;;;;;5036674;28;20045;-87
2022/06/17 11:43:54;;;;;;;0.20;0.20;;;;;;;;;;5035821;28;20145;-90
2022/06/17 11:46:23;;;;;;;0.73;0.30;;;;;;;;;;5035761;28;20053;-88
2022/06/17 11:48:53;;;;;;;5.07;0.52;;;;;;;;;;5035975;28;20139;-89
2022/06/17 11:51:39;;;;;;;1.02;0.20;;;;;;;;;;5036088;28;20049;-89
2022/06/17 11:54:08;;;;;;;0.10;0.10;;;;;;;;;;5036363;28;20144;-88
2022/06/17 11:56:40;;;;;;;0.57;0.25;;;;;;;;;;5036156;28;20088;-87
2022/06/17 11:59:14;;;;;;;0.40;0.30;;;;;;;;;;5036839;28;20045;-90
2022/06/17 12:01:48;;;;;;;1.58;0.40;;;;;;;;;;5035328;28;20081;-94
2022/06/17 12:04:34;;;;;;;5.75;0.50;;;;;;;;;;5035789;28;20045;-94
2022/06/17 12:07:01;;;;;;;14.38;1.55;;;;;;;;;;5038388;28;20127;-91
2022/06/17 12:09:32;;;;;;;7.55;0.98;;;;;;;;;;5038879;28;20049;-90
2022/06/17 12:12:02;;;;;;;7.72;1.55;;;;;;;;;;5042591;28;20056;-90
2022/06/17 12:14:35;;;;;;;0.80;0.40;;;;;;;;;;5043960;28;20056;-89
2022/06/17 12:17:13;;;;;;;6.82;0.47;;;;;;;;;;5037476;28;20131;-92
2022/06/17 12:19:52;;;;;;;3.72;0.63;;;;;;;;;;5038633;28;20057;-89
2022/06/17 12:22:29;;;;;;;1.35;0.40;;;;;;;;;;5037091;28;20143;-88
2022/06/17 12:24:59;;;;;;;0.98;0.25;;;;;;;;;;5037147;28;20053;-94
2022/06/17 12:27:28;;;;;;;0.30;0.30;;;;;;;;;;5037706;28;20132;-92
2022/06/17 12:30:20;;;;;;;0.30;0.17;;;;;;;;;;5041345;28;20511;-89
2022/06/17 12:32:50;;;;;;;0.32;0.30;;;;;;;;;;5036920;28;20116;-90
2022/06/17 12:35:22;;;;;;;1.92;0.30;;;;;;;;;;5036944;28;20076;-96
2022/06/17 12:37:55;;;;;;;10.65;0.63;;;;;;;;;;5035754;28;20059;-89
2022/06/17 12:40:22;;;;;;;;;;;;;;;;;;5036257;28;20576;-91
2022/06/17 12:42:53;;;;;;;5.95;0.47;;;;;;;;;;5037023;28;19928;-93
2022/06/17 12:45:26;;;;;;;0.73;0.40;;;;;;;;;;5034757;28;20143;-93
2022/06/17 12:48:06;;;;;;;0.40;0.20;;;;;;;;;;5035492;28;20404;-88
2022/06/17 12:53:38;;;;;;;0.63;0.30;;;;;;;;;;5055796;28;20089;-89
2022/06/17 12:56:19;;;;;;;1.05;0.30;;;;;;;;;;5035603;28;20068;-92
2022/06/17 12:59:03;;;;;;;2.10;0.30;;;;;;;;;;5038007;28;20049;-90
2022/06/17 13:01:37;;;;;;;0.20;0.20;;;;;;;;;;5052866;28;20547;-88
2022/06/17 13:04:13;;;;;;;0.50;0.20;;;;;;;;;;5035036;28;20069;-89
2022/06/17 13:06:47;;;;;;;6.65;1.15;;;;;;;;;;5035301;28;20053;-89
2022/06/17 13:09:33;;;;;;;1.00;0.32;;;;;;;;;;5035155;28;20091;-90
2022/06/17 13:12:02;;;;;;;1.55;0.28;;;;;;;;;;5034952;28;20045;-89
2022/06/17 13:14:32;;;;;;;2.85;0.20;;;;;;;;;;5036523;28;20045;-93
2022/06/17 13:17:07;;;;;;;1.23;0.28;;;;;;;;;;5039792;28;20052;-91
2022/06/17 13:19:39;;;;;;;1.63;0.30;;;;;;;;;;5040898;28;20083;-94
2022/06/17 13:22:13;;;;;;;1.35;0.30;;;;;;;;;;5040956;28;20405;-87
2022/06/17 13:24:49;;;;;;;0.80;0.40;;;;;;;;;;5038970;28;20533;-89
2022/06/17 13:27:19;;;;;;;0.22;0.20;;;;;;;;;;5040506;28;20055;-92
2022/06/17 13:29:50;;;;;;;0.30;0.30;;;;;;;;;;5041074;28;20136;-90
2022/06/17 13:32:22;;;;;;;1.92;0.38;;;;;;;;;;5042950;28;20069;-88
2022/06/17 13:34:53;;;;;;;3.10;0.38;;;;;;;;;;5040493;28;20390;-89
2022/06/17 13:37:32;;;;;;;21.13;2.10;;;;;;;;;;5039566;28;20136;-90
2022/06/17 13:40:04;;;;;;;0.80;0.30;;;;;;;;;;5040701;28;20059;-86
2022/06/17 13:42:32;;;;;;;1.98;0.20;;;;;;;;;;5044174;28;20084;-92
2022/06/17 13:45:11;;;;;;;0.45;0.22;;;;;;;;;;5041982;28;20246;-91
2022/06/17 13:47:42;;;;;;;0.88;0.10;;;;;;;;;;5039702;28;20079;-91
2022/06/17 13:50:30;;;;;;;1.55;0.30;;;;;;;;;;5040402;28;20075;-91
2022/06/17 13:53:13;;;;;;;1.63;0.10;;;;;;;;;;5042326;28;20503;-91
2022/06/17 13:55:44;;;;;;;1.23;0.13;;;;;;;;;;5040202;28;20408;-90
2022/06/17 13:58:19;;;;;;;0.30;0.20;;;;;;;;;;5043661;28;20144;-88
2022/06/17 14:00:55;;;;;;;0.93;0.25;;;;;;;;;;5036764;28;20136;-91
2022/06/17 14:03:56;;;;;;;11.98;1.50;;;;;;;;;;5039952;28;20053;-94
2022/06/17 14:06:32;;;;;;;5.43;0.35;;;;;;;;;;5034934;28;20103;-92
2022/06/17 14:09:22;;;;;;;0.10;0.10;;;;;;;;;;5036541;28;20061;-86
2022/06/17 14:11:49;;;;;;;0.73;0.30;;;;;;;;;;5036167;28;20084;-90
2022/06/17 14:14:20;;;;;;;0.45;0.10;;;;;;;;;;5035103;28;20145;-88
2022/06/17 14:17:06;;;;;;;0.63;0.10;;;;;;;;;;5036338;28;20065;-91
2022/06/17 14:19:35;;;;;;;0.28;0.20;;;;;;;;;;5038752;28;20057;-89
2022/06/17 14:22:03;;;;;;;1.85;0.20;;;;;;;;;;5035879;28;20143;-92
2022/06/17 14:24:42;;;;;;;0.55;0.40;;;;;;;;;;5035648;28;20080;-94
2022/06/17 14:27:15;;;;;;;0.35;0.22;;;;;;;;;;5033300;28;20145;-90
2022/06/17 14:29:45;;;;;;;1.42;0.52;;;;;;;;;;5034521;28;20069;-92
2022/06/17 14:32:17;;;;;;;0.38;0.38;;;;;;;;;;5042478;28;20049;-90
2022/06/17 14:34:47;;;;;;;0.30;0.20;;;;;;;;;;5043912;28;20056;-91
2022/06/17 14:37:36;;;;;;;1.35;0.25;;;;;;;;;;5036989;28;20132;-91
2022/06/17 14:40:18;;;;;;;0.55;0.10;;;;;;;;;;5035346;28;20085;-89
2022/06/17 14:42:51;;;;;;;0.15;0.15;;;;;;;;;;5039709;28;20069;-91
2022/06/17 14:45:48;;;;;;;0.68;0.10;;;;;;;;;;5038575;28;20053;-86
2022/06/17 14:48:15;;;;;;;1.67;0.13;;;;;;;;;;5034141;28;20589;-90
2022/06/17 14:50:45;;;;;;;0.68;0.20;;;;;;;;;;5035399;28;20054;-91
2022/06/17 14:53:29;;;;;;;2.22;0.17;;;;;;;;;;5039586;28;20049;-93
2022/06/17 14:55:58;;;;;;;1.75;0.40;;;;;;;;;;5039125;28;20116;-91
2022/06/17 14:58:45;;;;;;;0.38;0.10;;;;;;;;;;5037438;28;20053;-88
2022/06/17 15:01:18;;;;;;;0.20;0.13;;;;;;;;;;5043982;28;20053;-93
2022/06/17 15:03:46;;;;;;;0.90;0.30;;;;;;;;;;5041840;28;20053;-91
2022/06/17 15:06:16;;;;;;;0.45;0.20;;;;;;;;;;5037503;28;20050;-89
2022/06/17 15:08:46;;;;;;;0.10;0.10;;;;;;;;;;5037304;28;20045;-89
2022/06/17 15:11:16;;;;;;;0.73;0.17;;;;;;;;;;5035601;28;20144;-87
2022/06/17 15:14:09;;;;;;;0.10;0.10;;;;;;;;;;5035021;28;20073;-87
2022/06/17 15:16:48;;;;;;;1.95;0.10;;;;;;;;;;5036001;28;20136;-89
2022/06/17 15:19:23;;;;;;;2.58;0.20;;;;;;;;;;5036264;28;20045;-89
2022/06/17 15:21:56;;;;;;;0.20;0.20;;;;;;;;;;5035168;28;20096;-88
2022/06/17 15:24:24;;;;;;;0.45;0.20;;;;;;;;;;5038127;28;20053;-91